createdAt,value
2019-04-01T00:01:23.957Z,19.80
2019-04-01T00:03:52.725Z,19.30
2019-04-01T00:06:21.636Z,19.60
2019-04-01T00:08:50.487Z,19.70
2019-04-01T00:13:47.831Z,19.60
2019-04-01T00:16:16.766Z,20.10
2019-04-01T00:18:45.601Z,19.50
2019-04-01T00:23:43.192Z,19.40
2019-04-01T00:26:12.191Z,19.70
2019-04-01T00:28:42.323Z,20.10
2019-04-01T00:31:11.149Z,20.50
2019-04-01T00:33:40.022Z,20.10
2019-04-01T00:36:08.935Z,20.00
2019-04-01T00:38:37.728Z,19.90
2019-04-01T00:41:06.606Z,20.00
2019-04-01T00:43:55.339Z,21.30
2019-04-01T00:46:24.674Z,20.20
2019-04-01T00:48:53.501Z,21.00
2019-04-01T00:51:22.851Z,20.30
2019-04-01T00:56:20.252Z,20.20
2019-04-01T00:58:49.186Z,19.90
2019-04-01T01:01:18.126Z,20.30
2019-04-01T01:03:47.022Z,20.10
2019-04-01T01:08:44.335Z,20.50
2019-04-01T01:11:13.104Z,20.50
2019-04-01T01:13:41.950Z,20.00
2019-04-01T01:16:10.743Z,20.00
2019-04-01T01:18:39.611Z,20.50
2019-04-01T01:21:08.421Z,20.30
2019-04-01T01:23:37.309Z,20.40
2019-04-01T01:26:06.170Z,20.70
2019-04-01T01:28:35.131Z,20.50
2019-04-01T01:31:04.036Z,20.60
2019-04-01T01:33:32.911Z,20.50
2019-04-01T01:36:01.758Z,20.70
2019-04-01T01:38:30.640Z,20.70
2019-04-01T01:43:47.377Z,20.60
2019-04-01T01:46:16.214Z,20.80
2019-04-01T01:48:45.128Z,20.80
2019-04-01T01:51:13.901Z,20.70
2019-04-01T01:53:42.732Z,20.90
2019-04-01T01:56:11.580Z,21.40
2019-04-01T01:58:40.464Z,20.80
2019-04-01T02:01:09.338Z,20.90
2019-04-01T02:03:38.209Z,20.30
2019-04-01T02:06:07.160Z,20.40
2019-04-01T02:08:36.046Z,21.10
2019-04-01T02:11:05.160Z,21.10
2019-04-01T02:13:34.136Z,21.10
2019-04-01T02:16:03.129Z,21.30
2019-04-01T02:18:32.005Z,21.10
2019-04-01T02:21:00.776Z,21.40
2019-04-01T02:23:29.569Z,21.30
2019-04-01T02:25:58.344Z,21.40
2019-04-01T02:28:27.277Z,21.70
2019-04-01T02:30:56.125Z,21.60
2019-04-01T02:33:25.200Z,21.60
2019-04-01T02:35:54.155Z,21.20
2019-04-01T02:38:23.160Z,21.40
2019-04-01T02:40:52.061Z,21.50
2019-04-01T02:45:49.598Z,21.70
2019-04-01T02:48:18.478Z,22.00
2019-04-01T02:50:47.351Z,21.80
2019-04-01T02:55:44.754Z,21.90
2019-04-01T02:58:13.766Z,21.50
2019-04-01T03:00:44.345Z,21.60
2019-04-01T03:03:13.214Z,22.20
2019-04-01T03:05:42.145Z,22.30
2019-04-01T03:08:10.994Z,22.40
2019-04-01T03:10:39.800Z,22.20
2019-04-01T03:13:08.637Z,22.40
2019-04-01T03:15:37.525Z,22.30
2019-04-01T03:18:06.376Z,21.70
2019-04-01T03:20:35.437Z,22.50
2019-04-01T03:23:04.302Z,22.40
2019-04-01T03:25:33.351Z,21.80
2019-04-01T03:28:02.319Z,22.30
2019-04-01T03:30:31.189Z,22.40
2019-04-01T03:35:28.809Z,22.50
2019-04-01T03:37:57.682Z,22.30
2019-04-01T03:40:26.556Z,22.50
2019-04-01T03:42:55.486Z,22.80
2019-04-01T03:45:24.419Z,22.60
2019-04-01T03:47:53.343Z,22.80
2019-04-01T03:50:22.287Z,22.70
2019-04-01T03:52:51.206Z,23.40
2019-04-01T03:55:20.046Z,22.60
2019-04-01T03:57:48.911Z,23.10
2019-04-01T04:02:48.190Z,22.90
2019-04-01T04:05:17.073Z,22.90
2019-04-01T04:07:45.846Z,24.60
2019-04-01T04:10:14.724Z,23.30
2019-04-01T04:12:43.641Z,23.30
2019-04-01T04:18:00.453Z,23.70
2019-04-01T04:20:29.287Z,23.80
2019-04-01T04:22:58.133Z,23.30
2019-04-01T04:25:27.529Z,23.30
2019-04-01T04:27:56.384Z,23.40
2019-04-01T04:30:25.371Z,23.00
2019-04-01T04:32:54.266Z,23.30
2019-04-01T04:35:23.151Z,23.20
2019-04-01T04:37:52.060Z,23.60
2019-04-01T04:42:49.736Z,23.60
2019-04-01T04:45:18.734Z,23.50
2019-04-01T04:47:47.587Z,23.60
2019-04-01T04:50:16.441Z,23.10
2019-04-01T04:52:45.250Z,23.70
2019-04-01T05:00:12.172Z,23.80
2019-04-01T05:02:41.166Z,23.80
2019-04-01T05:05:10.004Z,23.50
2019-04-01T05:07:38.874Z,23.50
2019-04-01T05:10:08.578Z,23.20
2019-04-01T05:12:39.429Z,23.70
2019-04-01T05:15:08.128Z,23.70
2019-04-01T05:17:36.989Z,23.40
2019-04-01T05:20:09.428Z,23.50
2019-04-01T05:22:40.179Z,23.40
2019-04-01T05:25:09.276Z,23.40
2019-04-01T05:27:38.265Z,23.40
2019-04-01T05:32:37.604Z,23.00
2019-04-01T05:35:06.985Z,23.30
2019-04-01T05:37:36.157Z,23.00
2019-04-01T05:40:06.831Z,23.00
2019-04-01T05:42:43.318Z,22.90
2019-04-01T05:45:12.354Z,22.80
2019-04-01T05:50:11.676Z,22.90
2019-04-01T05:55:09.307Z,22.70
2019-04-01T05:57:38.413Z,22.50
2019-04-01T06:00:09.186Z,22.40
2019-04-01T06:02:38.215Z,22.20
2019-04-01T06:05:07.809Z,22.10
2019-04-01T06:10:07.110Z,22.40
2019-04-01T06:12:36.337Z,21.70
2019-04-01T06:15:06.895Z,21.70
2019-04-01T06:20:07.919Z,21.60
2019-04-01T06:22:36.897Z,21.50
2019-04-01T06:25:07.094Z,21.30
2019-04-01T06:27:36.000Z,20.90
2019-04-01T06:30:07.032Z,20.60
2019-04-01T06:32:36.146Z,20.70
2019-04-01T06:35:06.568Z,20.50
2019-04-01T06:37:35.423Z,20.20
2019-04-01T06:40:07.197Z,19.90
2019-04-01T06:45:06.565Z,19.80
2019-04-01T06:47:35.674Z,19.70
2019-04-01T06:50:06.037Z,19.50
2019-04-01T06:52:35.132Z,19.60
2019-04-01T06:55:05.345Z,19.20
2019-04-01T06:57:34.371Z,18.70
2019-04-01T07:00:05.278Z,19.20
2019-04-01T07:02:34.216Z,19.00
2019-04-01T07:07:31.966Z,18.50
2019-04-01T07:10:01.708Z,18.70
2019-04-01T07:12:49.908Z,18.20
2019-04-01T07:15:18.852Z,18.40
2019-04-01T07:17:47.862Z,17.70
2019-04-01T07:20:16.760Z,17.80
2019-04-01T07:22:45.604Z,17.80
2019-04-01T07:25:14.520Z,17.80
2019-04-01T07:27:43.515Z,17.90
2019-04-01T07:30:12.721Z,17.10
2019-04-01T07:32:42.024Z,17.80
2019-04-01T07:35:11.039Z,16.00
2019-04-01T07:37:39.991Z,15.90
2019-04-01T07:40:09.178Z,16.30
2019-04-01T07:42:38.071Z,15.60
2019-04-01T07:45:07.787Z,14.40
2019-04-01T07:47:37.699Z,14.70
2019-04-01T07:52:35.262Z,13.90
2019-04-01T07:55:06.791Z,13.70
2019-04-01T07:57:35.947Z,13.80
2019-04-01T08:00:06.771Z,13.70
2019-04-01T08:02:35.851Z,13.80
2019-04-01T08:05:06.030Z,14.10
2019-04-01T08:07:34.917Z,14.00
2019-04-01T08:12:51.700Z,13.10
2019-04-01T08:17:50.572Z,12.40
2019-04-01T08:20:20.018Z,12.80
2019-04-01T08:22:49.692Z,12.30
2019-04-01T08:25:18.605Z,12.50
2019-04-01T08:27:47.665Z,11.80
2019-04-01T08:30:16.749Z,11.40
2019-04-01T08:35:35.165Z,10.80
2019-04-01T08:38:24.893Z,10.90
2019-04-01T08:40:53.749Z,9.70
2019-04-01T08:43:22.738Z,9.70
2019-04-01T08:45:51.660Z,9.80
2019-04-01T08:48:20.549Z,10.10
2019-04-01T08:50:49.393Z,8.90
2019-04-01T08:53:18.515Z,9.20
2019-04-01T08:55:47.376Z,9.10
2019-04-01T08:58:16.413Z,9.20
2019-04-01T09:00:45.409Z,9.60
2019-04-01T09:03:14.376Z,9.30
2019-04-01T09:05:43.240Z,9.90
2019-04-01T09:08:12.074Z,9.50
2019-04-01T09:10:42.380Z,8.40
2019-04-01T09:18:09.292Z,9.30
2019-04-01T09:20:38.294Z,8.00
2019-04-01T09:23:07.230Z,8.40
2019-04-01T09:25:35.920Z,7.70
2019-04-01T09:28:05.104Z,8.20
2019-04-01T09:30:34.270Z,7.90
2019-04-01T09:35:50.990Z,8.50
2019-04-01T09:38:19.932Z,7.90
2019-04-01T09:40:49.250Z,8.20
2019-04-01T09:43:17.852Z,7.80
2019-04-01T09:45:46.428Z,7.60
2019-04-01T09:48:15.240Z,7.30
2019-04-01T09:50:43.846Z,7.60
2019-04-01T09:53:12.436Z,7.40
2019-04-01T09:55:40.972Z,7.10
2019-04-01T09:58:09.519Z,6.90
2019-04-01T10:00:38.181Z,7.50
2019-04-01T10:05:34.969Z,5.80
2019-04-01T10:08:03.669Z,5.90
2019-04-01T10:10:32.308Z,5.40
2019-04-01T10:13:01.040Z,5.40
2019-04-01T10:15:29.548Z,5.40
2019-04-01T10:17:58.321Z,6.10
2019-04-01T10:20:26.905Z,5.90
2019-04-01T10:22:55.589Z,6.20
2019-04-01T10:25:24.181Z,5.50
2019-04-01T10:27:52.800Z,5.70
2019-04-01T10:30:22.102Z,6.20
2019-04-01T10:32:50.725Z,6.20
2019-04-01T10:35:19.385Z,6.40
2019-04-01T10:37:48.065Z,5.30
2019-04-01T10:40:37.434Z,4.80
2019-04-01T10:43:06.259Z,5.30
2019-04-01T10:45:34.828Z,5.60
2019-04-01T10:48:03.628Z,4.90
2019-04-01T10:50:32.338Z,4.70
2019-04-01T10:53:01.093Z,5.20
2019-04-01T10:55:29.690Z,4.40
2019-04-01T10:57:58.285Z,7.50
2019-04-01T11:00:27.595Z,4.10
2019-04-01T11:02:56.360Z,4.50
2019-04-01T11:05:25.090Z,3.90
2019-04-01T11:07:53.745Z,3.50
2019-04-01T11:10:22.475Z,3.40
2019-04-01T11:12:51.046Z,2.70
2019-04-01T11:15:20.505Z,3.00
2019-04-01T11:17:52.240Z,2.70
2019-04-01T11:20:19.509Z,2.80
2019-04-01T11:22:48.091Z,1.20
2019-04-01T11:25:16.811Z,2.00
2019-04-01T11:27:45.372Z,1.80
2019-04-01T11:30:15.241Z,1.00
2019-04-01T11:32:43.984Z,1.90
2019-04-01T11:35:12.786Z,1.50
2019-04-01T11:37:41.661Z,1.30
2019-04-01T11:40:12.225Z,1.00
2019-04-01T11:42:41.191Z,1.70
2019-04-01T11:45:10.776Z,1.50
2019-04-01T11:47:39.422Z,1.10
2019-04-01T11:50:08.268Z,1.00
2019-04-01T11:52:38.009Z,1.00
2019-04-01T11:55:09.123Z,1.00
2019-04-01T11:57:38.297Z,1.00
2019-04-01T12:00:12.670Z,1.00
2019-04-01T12:02:41.173Z,1.20
2019-04-01T12:05:10.005Z,1.00
2019-04-01T12:07:45.093Z,1.00
2019-04-01T12:10:23.377Z,1.00
2019-04-01T12:13:00.896Z,1.00
2019-04-01T12:15:31.034Z,1.00
2019-04-01T12:18:01.858Z,1.00
2019-04-01T12:20:30.780Z,1.00
2019-04-01T12:22:59.420Z,1.00
2019-04-01T12:25:28.091Z,1.00
2019-04-01T12:27:56.651Z,1.00
2019-04-01T12:30:27.137Z,1.00
2019-04-01T12:32:56.026Z,1.00
2019-04-01T12:35:25.741Z,1.00
2019-04-01T12:37:54.278Z,1.00
2019-04-01T12:42:52.469Z,1.00
2019-04-01T12:45:21.092Z,1.00
2019-04-01T12:47:49.657Z,1.00
2019-04-01T12:50:18.330Z,1.00
2019-04-01T12:52:49.650Z,1.00
2019-04-01T12:55:20.293Z,1.00
2019-04-01T12:57:50.748Z,1.00
2019-04-01T13:00:22.256Z,1.00
2019-04-01T13:02:51.533Z,1.00
2019-04-01T13:05:22.700Z,1.00
2019-04-01T13:07:54.138Z,1.00
2019-04-01T13:10:23.034Z,1.00
2019-04-01T13:12:54.309Z,1.00
2019-04-01T13:15:23.994Z,1.00
2019-04-01T13:17:52.639Z,1.00
2019-04-01T13:20:21.216Z,1.00
2019-04-01T13:22:49.825Z,1.00
2019-04-01T13:25:18.463Z,1.00
2019-04-01T13:27:47.148Z,1.00
2019-04-01T13:30:16.162Z,1.00
2019-04-01T13:32:44.873Z,1.00
2019-04-01T13:35:13.687Z,1.00
2019-04-01T13:37:42.309Z,1.00
2019-04-01T13:40:11.183Z,1.00
2019-04-01T13:42:39.772Z,1.00
2019-04-01T13:45:08.769Z,1.00
2019-04-01T13:47:41.130Z,1.00
2019-04-01T13:50:10.305Z,1.00
2019-04-01T13:52:39.015Z,1.00
2019-04-01T13:55:07.738Z,1.00
2019-04-01T13:57:36.894Z,1.00
2019-04-01T14:00:07.495Z,1.00
2019-04-01T14:02:36.177Z,1.00
2019-04-01T14:05:07.142Z,1.00
2019-04-01T14:07:35.721Z,1.00
2019-04-01T14:10:06.646Z,1.00
2019-04-01T14:12:35.326Z,1.00
2019-04-01T14:15:07.338Z,1.00
2019-04-01T14:17:36.658Z,1.00
2019-04-01T14:20:08.326Z,1.00
2019-04-01T14:22:38.658Z,1.00
2019-04-01T14:25:08.154Z,1.00
2019-04-01T14:27:37.383Z,1.00
2019-04-01T14:30:11.872Z,1.00
2019-04-01T14:32:42.080Z,1.00
2019-04-01T14:35:11.636Z,1.00
2019-04-01T14:37:40.751Z,1.00
2019-04-01T14:40:10.309Z,1.00
2019-04-01T14:42:39.810Z,1.00
2019-04-01T14:45:09.881Z,1.00
2019-04-01T14:47:55.654Z,1.00
2019-04-01T14:50:10.392Z,1.00
2019-04-01T14:52:41.189Z,1.00
2019-04-01T14:55:11.261Z,1.00
2019-04-01T14:57:43.338Z,1.00
2019-04-01T15:00:14.766Z,1.00
2019-04-01T15:02:44.079Z,1.00
2019-04-01T15:05:13.123Z,1.00
2019-04-01T15:07:42.244Z,1.00
2019-04-01T15:10:11.602Z,1.00
2019-04-01T15:12:40.717Z,1.00
2019-04-01T15:15:10.313Z,1.00
2019-04-01T15:17:39.508Z,1.00
2019-04-01T15:20:09.028Z,1.00
2019-04-01T15:22:38.159Z,1.00
2019-04-01T15:25:07.887Z,1.00
2019-04-01T15:27:36.445Z,1.00
2019-04-01T15:30:08.801Z,1.00
2019-04-01T15:32:39.047Z,1.00
2019-04-01T15:35:09.554Z,1.00
2019-04-01T15:37:38.884Z,1.00
2019-04-01T15:40:08.143Z,1.00
2019-04-01T15:42:36.725Z,1.00
2019-04-01T15:45:06.377Z,1.00
2019-04-01T15:47:35.311Z,1.00
2019-04-01T15:50:06.361Z,1.00
2019-04-01T15:52:34.957Z,1.00
2019-04-01T15:55:04.675Z,1.00
2019-04-01T15:57:33.395Z,1.00
2019-04-01T16:00:03.271Z,1.00
2019-04-01T16:07:28.966Z,1.00
2019-04-01T16:19:50.946Z,1.00
2019-04-01T16:22:19.503Z,1.00
2019-04-01T16:24:48.079Z,1.00
2019-04-01T16:27:16.799Z,1.00
2019-04-01T16:29:45.395Z,1.00
2019-04-01T16:32:13.978Z,1.00
2019-04-01T16:34:42.695Z,1.00
2019-04-01T16:37:12.981Z,1.00
2019-04-01T16:39:42.965Z,1.00
2019-04-01T16:42:11.606Z,1.00
2019-04-01T16:44:40.306Z,1.00
2019-04-01T16:47:10.182Z,1.00
2019-04-01T16:49:39.284Z,1.00
2019-04-01T16:52:07.902Z,1.00
2019-04-01T16:54:37.568Z,1.00
2019-04-01T16:57:06.813Z,1.00
2019-04-01T16:59:38.492Z,1.00
2019-04-01T17:02:17.329Z,1.00
2019-04-01T17:04:37.457Z,1.00
2019-04-01T17:07:06.195Z,1.00
2019-04-01T17:09:35.151Z,1.00
2019-04-01T17:12:04.873Z,1.00
2019-04-01T17:14:33.509Z,1.00
2019-04-01T17:17:02.185Z,1.00
2019-04-01T17:24:28.060Z,1.00
2019-04-01T17:27:05.950Z,1.00
2019-04-01T17:29:34.614Z,1.00
2019-04-01T17:32:03.285Z,1.00
2019-04-01T17:34:31.979Z,1.40
2019-04-01T17:37:01.276Z,2.60
2019-04-01T17:39:30.039Z,1.70
2019-04-01T17:41:58.686Z,3.00
2019-04-01T17:44:27.323Z,3.00
2019-04-01T17:46:55.945Z,2.70
2019-04-01T17:49:25.053Z,1.90
2019-04-01T17:51:56.382Z,3.40
2019-04-01T17:54:25.424Z,3.50
2019-04-01T17:56:55.754Z,3.10
2019-04-01T17:59:24.494Z,2.50
2019-04-01T18:01:57.167Z,3.70
2019-04-01T18:04:25.915Z,3.90
2019-04-01T18:06:54.560Z,3.80
2019-04-01T18:09:23.541Z,3.40
2019-04-01T18:11:52.157Z,4.00
2019-04-01T18:14:20.944Z,5.40
2019-04-01T18:16:49.600Z,4.90
2019-04-01T18:19:18.545Z,3.40
2019-04-01T18:21:47.043Z,5.50
2019-04-01T18:24:15.645Z,5.90
2019-04-01T18:26:45.953Z,5.50
2019-04-01T18:29:15.937Z,4.30
2019-04-01T18:31:44.781Z,5.80
2019-04-01T18:34:13.650Z,5.80
2019-04-01T18:36:42.517Z,6.20
2019-04-01T18:39:11.474Z,4.70
2019-04-01T18:41:40.335Z,6.50
2019-04-01T18:44:09.223Z,6.60
2019-04-01T18:46:38.174Z,6.50
2019-04-01T18:49:07.109Z,5.10
2019-04-01T18:51:36.622Z,7.00
2019-04-01T18:54:05.569Z,6.80
2019-04-01T18:56:34.974Z,6.80
2019-04-01T18:59:04.342Z,5.60
2019-04-01T19:01:33.190Z,7.10
2019-04-01T19:04:02.090Z,7.00
2019-04-01T19:06:30.938Z,7.70
2019-04-01T19:09:09.091Z,6.30
2019-04-01T19:11:30.390Z,7.70
2019-04-01T19:13:59.266Z,7.30
2019-04-01T19:16:28.194Z,7.40
2019-04-01T19:18:56.985Z,6.10
2019-04-01T19:21:25.927Z,7.40
2019-04-01T19:23:54.783Z,7.30
2019-04-01T19:26:24.330Z,7.20
2019-04-01T19:28:53.437Z,6.20
2019-04-01T19:31:22.338Z,7.60
2019-04-01T19:33:51.230Z,7.20
2019-04-01T19:36:20.136Z,7.60
2019-04-01T19:38:49.167Z,6.50
2019-04-01T19:41:18.088Z,7.70
2019-04-01T19:43:46.942Z,7.70
2019-04-01T19:46:15.880Z,8.70
2019-04-01T19:48:44.838Z,6.60
2019-04-01T19:51:13.791Z,6.60
2019-04-01T19:53:42.640Z,7.30
2019-04-01T19:56:11.478Z,6.80
2019-04-01T19:58:40.391Z,6.70
2019-04-01T20:01:09.282Z,8.00
2019-04-01T20:03:38.191Z,8.30
2019-04-01T20:06:07.618Z,8.10
2019-04-01T20:08:36.608Z,6.70
2019-04-01T20:11:05.604Z,6.90
2019-04-01T20:13:34.477Z,8.20
2019-04-01T20:16:03.495Z,8.20
2019-04-01T20:18:32.363Z,7.00
2019-04-01T20:21:01.431Z,8.50
2019-04-01T20:23:30.303Z,8.90
2019-04-01T20:25:59.189Z,8.60
2019-04-01T20:28:28.041Z,7.40
2019-04-01T20:30:56.934Z,8.90
2019-04-01T20:33:25.845Z,9.00
2019-04-01T20:35:54.760Z,8.70
2019-04-01T20:38:23.558Z,7.70
2019-04-01T20:40:53.007Z,8.70
2019-04-01T20:43:22.125Z,8.70
2019-04-01T20:45:50.973Z,9.00
2019-04-01T20:48:19.858Z,8.10
2019-04-01T20:50:48.719Z,9.00
2019-04-01T20:53:19.024Z,9.10
2019-04-01T20:55:49.631Z,9.10
2019-04-01T20:58:18.474Z,8.20
2019-04-01T21:00:47.390Z,9.60
2019-04-01T21:03:16.332Z,9.10
2019-04-01T21:05:45.193Z,9.40
2019-04-01T21:08:14.094Z,8.50
2019-04-01T21:10:42.933Z,9.40
2019-04-01T21:13:11.879Z,9.30
2019-04-01T21:15:40.745Z,9.40
2019-04-01T21:18:09.616Z,9.10
2019-04-01T21:20:38.487Z,9.60
2019-04-01T21:23:07.666Z,10.10
2019-04-01T21:25:36.533Z,10.00
2019-04-01T21:28:05.478Z,9.90
2019-04-01T21:30:34.324Z,9.50
2019-04-01T21:33:03.172Z,10.00
2019-04-01T21:35:32.030Z,10.10
2019-04-01T21:38:01.031Z,10.00
2019-04-01T21:40:29.929Z,9.50
2019-04-01T21:42:58.906Z,10.00
2019-04-01T21:45:27.755Z,10.30
2019-04-01T21:47:56.622Z,10.50
2019-04-01T21:50:25.463Z,9.50
2019-04-01T21:52:54.262Z,10.30
2019-04-01T21:55:23.175Z,10.40
2019-04-01T21:57:52.124Z,10.30
2019-04-01T22:00:39.090Z,10.90
2019-04-01T22:03:08.150Z,10.50
2019-04-01T22:05:37.070Z,10.50
2019-04-01T22:08:06.284Z,10.70
2019-04-01T22:10:35.973Z,10.30
2019-04-01T22:13:04.834Z,9.70
2019-04-01T22:15:33.710Z,10.10
2019-04-01T22:18:02.571Z,10.50
2019-04-01T22:20:31.450Z,10.00
2019-04-01T22:23:00.316Z,10.70
2019-04-01T22:25:29.977Z,10.80
2019-04-01T22:27:58.932Z,11.00
2019-04-01T22:30:27.882Z,10.50
2019-04-01T22:32:56.841Z,10.30
2019-04-01T22:42:51.181Z,14.00
2019-04-01T22:55:15.349Z,10.40
2019-04-01T23:15:08.009Z,11.70
2019-04-01T23:30:02.325Z,12.30
2019-04-01T23:47:22.311Z,12.80
2019-04-01T23:49:51.229Z,13.50
2019-04-01T23:52:20.223Z,13.50
2019-04-01T23:54:49.001Z,13.80
